createdAt,value
2022-12-31T00:02:46.950Z,100935.50
2022-12-31T00:05:52.735Z,100943.03
2022-12-31T00:09:03.733Z,100954.84
2022-12-31T00:12:09.757Z,100955.00
2022-12-31T00:15:16.850Z,100955.06
2022-12-31T00:18:21.690Z,100951.19
2022-12-31T00:21:25.013Z,100943.25
2022-12-31T00:24:31.853Z,100955.34
2022-12-31T00:27:37.537Z,100961.81
2022-12-31T00:30:40.988Z,100973.91
2022-12-31T00:33:46.743Z,100973.22
2022-12-31T00:36:52.710Z,100975.75
2022-12-31T00:39:57.203Z,100987.09
2022-12-31T00:43:00.743Z,100974.12
2022-12-31T00:46:10.121Z,100981.09
2022-12-31T00:49:16.270Z,100988.28
2022-12-31T00:52:21.182Z,100982.75
2022-12-31T00:55:26.439Z,100989.44
2022-12-31T00:58:33.200Z,100987.25
2022-12-31T01:01:40.312Z,100993.34
2022-12-31T01:04:43.638Z,100996.75
2022-12-31T01:07:47.083Z,100996.81
2022-12-31T01:11:09.537Z,100999.56
2022-12-31T01:14:18.693Z,100994.56
2022-12-31T01:17:25.332Z,100999.72
2022-12-31T01:20:29.342Z,100989.47
2022-12-31T01:23:36.843Z,100996.28
2022-12-31T01:26:42.496Z,100998.78
2022-12-31T01:29:46.096Z,100999.00
2022-12-31T01:32:49.046Z,101001.47
2022-12-31T01:35:53.225Z,100999.53
2022-12-31T01:39:00.789Z,100998.63
2022-12-31T01:42:08.376Z,100997.94
2022-12-31T01:45:16.711Z,100999.84
2022-12-31T01:48:26.487Z,100996.16
2022-12-31T01:51:37.127Z,101002.03
2022-12-31T01:54:56.087Z,100996.19
2022-12-31T01:58:15.349Z,100997.25
2022-12-31T02:01:27.844Z,100997.22
2022-12-31T02:04:36.390Z,100996.94
2022-12-31T02:07:44.414Z,101004.06
2022-12-31T02:10:47.635Z,101007.34
2022-12-31T02:13:56.619Z,101010.00
2022-12-31T02:17:28.659Z,101005.66
2022-12-31T02:21:09.362Z,101009.91
2022-12-31T02:24:44.289Z,101011.38
2022-12-31T02:28:20.764Z,101010.63
2022-12-31T02:31:38.135Z,100998.38
2022-12-31T02:35:08.373Z,100999.87
2022-12-31T02:38:25.611Z,101013.59
2022-12-31T02:41:47.607Z,101019.03
2022-12-31T02:44:55.398Z,101017.28
2022-12-31T02:48:29.903Z,101017.41
2022-12-31T02:52:10.895Z,101014.97
2022-12-31T02:55:20.351Z,101013.03
2022-12-31T02:59:19.231Z,101013.69
2022-12-31T03:02:25.403Z,100999.16
2022-12-31T03:05:35.447Z,100996.63
2022-12-31T03:09:01.791Z,100993.34
2022-12-31T03:12:27.911Z,100994.16
2022-12-31T03:15:35.547Z,100985.06
2022-12-31T03:18:56.844Z,101004.13
2022-12-31T03:22:20.710Z,100986.72
2022-12-31T03:25:37.718Z,100966.09
2022-12-31T03:28:43.996Z,100990.88
2022-12-31T03:31:48.639Z,100986.97
2022-12-31T03:34:52.727Z,100988.84
2022-12-31T03:37:57.189Z,100983.63
2022-12-31T03:41:00.988Z,100997.00
2022-12-31T03:44:04.765Z,100991.75
2022-12-31T03:47:09.478Z,100982.31
2022-12-31T03:50:14.427Z,100978.50
2022-12-31T03:53:20.169Z,100974.41
2022-12-31T03:56:23.996Z,100982.22
2022-12-31T03:59:29.134Z,100987.72
2022-12-31T04:02:34.804Z,100980.25
2022-12-31T04:05:38.242Z,100982.16
2022-12-31T04:08:44.858Z,100988.00
2022-12-31T04:11:47.796Z,100985.06
2022-12-31T04:14:51.787Z,100979.78
2022-12-31T04:17:56.186Z,100994.00
2022-12-31T04:21:05.648Z,100992.34
2022-12-31T04:24:13.538Z,101001.66
2022-12-31T04:27:16.928Z,100994.34
2022-12-31T04:30:20.844Z,100989.69
2022-12-31T04:33:25.777Z,100998.53
2022-12-31T04:36:29.911Z,101014.19
2022-12-31T04:39:33.507Z,101006.56
2022-12-31T04:42:40.483Z,101006.28
2022-12-31T04:45:44.876Z,101017.63
2022-12-31T04:48:49.527Z,101018.53
2022-12-31T04:51:54.348Z,101026.25
2022-12-31T04:54:59.921Z,101032.28
2022-12-31T04:58:08.739Z,101032.25
2022-12-31T05:01:15.863Z,101045.06
2022-12-31T05:04:20.990Z,101047.37
2022-12-31T05:07:24.864Z,101048.56
2022-12-31T05:10:32.369Z,101049.91
2022-12-31T05:13:36.473Z,101063.44
2022-12-31T05:16:40.392Z,101051.63
2022-12-31T05:19:43.678Z,101073.47
2022-12-31T05:22:47.177Z,101070.03
2022-12-31T05:25:54.775Z,101060.53
2022-12-31T05:29:01.140Z,101058.88
2022-12-31T05:32:04.419Z,101061.59
2022-12-31T05:35:08.885Z,101055.59
2022-12-31T05:38:14.118Z,101067.94
2022-12-31T05:41:20.835Z,101075.62
2022-12-31T05:44:23.540Z,101081.22
2022-12-31T05:47:28.499Z,101096.09
2022-12-31T05:50:35.524Z,101096.25
2022-12-31T05:53:40.417Z,101097.94
2022-12-31T05:56:46.766Z,101108.34
2022-12-31T05:59:51.511Z,101101.94
2022-12-31T06:02:55.254Z,101097.78
2022-12-31T06:05:58.612Z,101096.03
2022-12-31T06:09:05.500Z,101090.13
2022-12-31T06:12:13.612Z,101096.00
2022-12-31T06:15:17.821Z,101101.31
2022-12-31T06:18:23.063Z,101097.09
2022-12-31T06:21:29.210Z,101097.75
2022-12-31T06:24:32.935Z,101091.81
2022-12-31T06:27:37.976Z,101083.81
2022-12-31T06:30:47.108Z,101081.37
2022-12-31T06:33:53.497Z,101096.84
2022-12-31T06:36:56.870Z,101111.53
2022-12-31T06:40:00.895Z,101108.81
2022-12-31T06:43:05.201Z,101107.28
2022-12-31T06:46:11.982Z,101113.41
2022-12-31T06:49:16.349Z,101121.97
2022-12-31T06:52:21.397Z,101125.19
2022-12-31T06:55:25.506Z,101109.53
2022-12-31T06:58:29.462Z,101117.25
2022-12-31T07:01:55.145Z,101126.53
2022-12-31T07:05:10.987Z,101110.22
2022-12-31T07:08:53.121Z,101122.94
2022-12-31T07:12:25.354Z,101132.63
2022-12-31T07:15:49.381Z,101132.91
2022-12-31T07:19:05.140Z,101132.03
2022-12-31T07:22:16.328Z,101139.44
2022-12-31T07:25:20.985Z,101145.53
2022-12-31T07:28:54.435Z,101147.12
2022-12-31T07:32:25.399Z,101143.56
2022-12-31T07:35:48.148Z,101136.56
2022-12-31T07:39:12.731Z,101149.63
2022-12-31T07:42:33.636Z,101139.97
2022-12-31T07:46:03.793Z,101139.06
2022-12-31T07:49:14.974Z,101143.88
2022-12-31T07:52:21.932Z,101154.03
2022-12-31T07:55:27.377Z,101160.97
2022-12-31T07:58:58.898Z,101167.94
2022-12-31T08:02:19.104Z,101164.28
2022-12-31T08:05:35.436Z,101158.38
2022-12-31T08:08:45.168Z,101171.88
2022-12-31T08:12:01.887Z,101172.19
2022-12-31T08:15:18.077Z,101168.25
2022-12-31T08:18:21.129Z,101183.38
2022-12-31T08:21:39.296Z,101191.50
2022-12-31T08:25:07.753Z,101190.56
2022-12-31T08:28:43.474Z,101212.28
2022-12-31T08:32:32.119Z,101209.94
2022-12-31T08:36:09.012Z,101218.03
2022-12-31T08:39:56.153Z,101225.38
2022-12-31T08:43:19.269Z,101238.75
2022-12-31T08:46:32.870Z,101244.47
2022-12-31T08:49:36.756Z,101252.41
2022-12-31T08:52:45.253Z,101250.00
2022-12-31T08:55:56.523Z,101250.34
2022-12-31T08:59:35.584Z,101236.84
2022-12-31T09:03:06.715Z,101235.69
2022-12-31T09:06:13.704Z,101247.06
2022-12-31T09:09:52.111Z,101244.44
2022-12-31T09:13:21.336Z,101253.47
2022-12-31T09:16:54.870Z,101242.50
2022-12-31T09:20:01.104Z,101246.87
2022-12-31T09:23:09.114Z,101242.31
2022-12-31T09:26:22.540Z,101242.31
2022-12-31T09:29:36.887Z,101236.63
2022-12-31T09:33:05.499Z,101235.94
2022-12-31T09:36:21.392Z,101217.69
2022-12-31T09:39:44.648Z,101232.06
2022-12-31T09:43:27.698Z,101208.09
2022-12-31T09:46:48.671Z,101215.19
2022-12-31T09:50:24.612Z,101208.25
2022-12-31T09:53:41.467Z,101204.13
2022-12-31T09:57:16.415Z,101198.09
2022-12-31T10:01:00.455Z,101186.75
2022-12-31T10:04:34.337Z,101184.50
2022-12-31T10:07:59.666Z,101182.81
2022-12-31T10:11:30.262Z,101173.28
2022-12-31T10:14:51.587Z,101167.53
2022-12-31T10:18:16.619Z,101171.94
2022-12-31T10:21:38.086Z,101183.59
2022-12-31T10:25:00.384Z,101184.50
2022-12-31T10:28:16.507Z,101184.50
2022-12-31T10:31:38.096Z,101181.56
2022-12-31T10:35:17.951Z,101187.75
2022-12-31T10:38:33.037Z,101185.13
2022-12-31T10:41:39.018Z,101190.47
2022-12-31T10:45:02.584Z,101190.91
2022-12-31T10:48:44.642Z,101185.41
2022-12-31T10:52:03.931Z,101190.75
2022-12-31T10:55:34.052Z,101175.44
2022-12-31T10:58:58.891Z,101169.28
2022-12-31T11:02:39.367Z,101161.88
2022-12-31T11:06:01.368Z,101188.03
2022-12-31T11:09:34.746Z,101183.47
2022-12-31T11:12:59.663Z,101163.94
2022-12-31T11:16:14.832Z,101156.06
2022-12-31T11:19:45.167Z,101150.56
2022-12-31T11:23:13.758Z,101152.44
2022-12-31T11:26:41.230Z,101151.34
2022-12-31T11:30:03.049Z,101149.03
2022-12-31T11:33:28.465Z,101158.50
2022-12-31T11:36:43.126Z,101150.50
2022-12-31T11:40:16.940Z,101158.78
2022-12-31T11:43:37.131Z,101152.44
2022-12-31T11:47:00.768Z,101157.59
2022-12-31T11:50:24.566Z,101162.56
2022-12-31T11:53:38.934Z,101153.28
2022-12-31T11:56:49.703Z,101145.87
2022-12-31T12:00:00.084Z,101141.16
2022-12-31T12:03:07.739Z,101155.56
2022-12-31T12:06:18.449Z,101164.25
2022-12-31T12:09:31.374Z,101164.41
2022-12-31T12:12:44.057Z,101173.97
2022-12-31T12:15:53.856Z,101160.13
2022-12-31T12:19:08.368Z,101171.84
2022-12-31T12:22:27.470Z,101168.87
2022-12-31T12:25:45.264Z,101188.22
2022-12-31T12:28:50.949Z,101174.34
2022-12-31T12:31:55.703Z,101168.00
2022-12-31T12:35:00.625Z,101183.97
2022-12-31T12:38:19.676Z,101180.72
2022-12-31T12:41:27.645Z,101170.44
2022-12-31T12:44:33.064Z,101168.72
2022-12-31T12:47:39.911Z,101161.47
2022-12-31T12:50:47.409Z,101154.81
2022-12-31T12:54:05.947Z,101153.72
2022-12-31T12:57:32.995Z,101167.22
2022-12-31T13:00:40.916Z,101171.47
2022-12-31T13:04:34.046Z,101159.25
2022-12-31T13:07:54.466Z,101160.19
2022-12-31T13:11:16.606Z,101147.81
2022-12-31T13:14:44.366Z,101155.16
2022-12-31T13:18:06.974Z,101150.31
2022-12-31T13:22:00.859Z,101153.00
2022-12-31T13:25:27.671Z,101155.56
2022-12-31T13:28:35.869Z,101156.56
2022-12-31T13:31:41.997Z,101168.94
2022-12-31T13:34:48.673Z,101177.72
2022-12-31T13:38:05.005Z,101174.38
2022-12-31T13:41:35.578Z,101175.50
2022-12-31T13:44:46.712Z,101181.03
2022-12-31T13:47:59.631Z,101181.12
2022-12-31T13:51:24.431Z,101167.06
2022-12-31T13:55:07.289Z,101170.84
2022-12-31T13:58:13.552Z,101166.75
2022-12-31T14:01:22.505Z,101176.56
2022-12-31T14:04:34.175Z,101173.88
2022-12-31T14:07:51.264Z,101176.63
2022-12-31T14:11:34.066Z,101181.03
2022-12-31T14:14:44.655Z,101188.94
2022-12-31T14:18:10.509Z,101187.72
2022-12-31T14:21:30.670Z,101193.34
2022-12-31T14:24:48.509Z,101185.97
2022-12-31T14:27:55.797Z,101192.97
2022-12-31T14:31:12.719Z,101185.16
2022-12-31T14:35:01.714Z,101193.37
2022-12-31T14:38:43.065Z,101189.41
2022-12-31T14:42:22.940Z,101200.44
2022-12-31T14:45:58.182Z,101203.53
2022-12-31T14:49:35.776Z,101197.56
2022-12-31T14:53:09.183Z,101198.34
2022-12-31T14:56:38.417Z,101188.31
2022-12-31T14:59:57.708Z,101187.09
2022-12-31T15:03:26.729Z,101189.16
2022-12-31T15:06:37.533Z,101194.59
2022-12-31T15:09:50.449Z,101191.12
2022-12-31T15:13:14.412Z,101200.22
2022-12-31T15:16:41.820Z,101198.28
2022-12-31T15:20:24.618Z,101207.25
2022-12-31T15:23:43.455Z,101188.31
2022-12-31T15:27:11.226Z,101185.91
2022-12-31T15:30:52.460Z,101205.38
2022-12-31T15:33:59.933Z,101203.63
2022-12-31T15:37:35.126Z,101210.81
2022-12-31T15:40:47.691Z,101200.03
2022-12-31T15:44:20.272Z,101208.09
2022-12-31T15:47:31.258Z,101202.41
2022-12-31T15:50:39.946Z,101209.22
2022-12-31T15:53:49.503Z,101218.78
2022-12-31T15:56:55.622Z,101226.16
2022-12-31T16:00:01.733Z,101211.75
2022-12-31T16:03:22.936Z,101213.56
2022-12-31T16:06:31.967Z,101216.09
2022-12-31T16:09:36.905Z,101208.38
2022-12-31T16:12:44.766Z,101210.19
2022-12-31T16:16:22.333Z,101223.31
2022-12-31T16:19:34.187Z,101224.94
2022-12-31T16:22:40.172Z,101212.78
2022-12-31T16:25:45.209Z,101203.03
2022-12-31T16:28:52.273Z,101201.56
2022-12-31T16:31:55.551Z,101204.25
2022-12-31T16:35:01.934Z,101202.47
2022-12-31T16:38:10.856Z,101200.03
2022-12-31T16:41:27.815Z,101198.97
2022-12-31T16:44:31.252Z,101201.97
2022-12-31T16:47:40.646Z,101203.78
2022-12-31T16:50:58.265Z,101204.78
2022-12-31T16:54:02.479Z,101214.66
2022-12-31T16:57:07.811Z,101214.84
2022-12-31T17:00:17.060Z,101213.22
2022-12-31T17:03:31.491Z,101207.72
2022-12-31T17:06:34.978Z,101208.25
2022-12-31T17:09:40.895Z,101208.50
2022-12-31T17:16:22.706Z,101228.84
2022-12-31T17:19:45.882Z,101223.28
2022-12-31T17:22:49.956Z,101213.16
2022-12-31T17:26:14.795Z,101211.44
2022-12-31T17:29:26.626Z,101206.03
2022-12-31T17:32:40.903Z,101220.09
2022-12-31T17:35:46.957Z,101225.56
2022-12-31T17:38:51.720Z,101223.28
2022-12-31T17:41:58.983Z,101231.97
2022-12-31T17:45:08.017Z,101239.94
2022-12-31T17:48:20.942Z,101239.84
2022-12-31T17:51:24.887Z,101244.34
2022-12-31T17:54:29.225Z,101239.16
2022-12-31T17:57:31.746Z,101247.00
2022-12-31T18:00:40.314Z,101246.75
2022-12-31T18:03:46.545Z,101243.53
2022-12-31T18:06:52.591Z,101244.47
2022-12-31T18:09:57.637Z,101242.53
2022-12-31T18:13:02.106Z,101238.03
2022-12-31T18:16:07.425Z,101227.38
2022-12-31T18:19:45.689Z,101235.50
2022-12-31T18:22:44.704Z,101229.66
2022-12-31T18:25:49.765Z,101239.31
2022-12-31T18:28:53.861Z,101235.12
2022-12-31T18:31:57.258Z,101242.22
2022-12-31T18:35:03.859Z,101248.50
2022-12-31T18:38:13.507Z,101240.78
2022-12-31T18:41:24.279Z,101242.91
2022-12-31T18:44:29.044Z,101256.06
2022-12-31T18:47:37.523Z,101251.72
2022-12-31T18:50:46.117Z,101260.59
2022-12-31T18:53:49.816Z,101257.53
2022-12-31T18:56:57.153Z,101267.87
2022-12-31T19:00:01.329Z,101278.28
2022-12-31T19:03:10.113Z,101278.25
2022-12-31T19:06:17.036Z,101277.34
2022-12-31T19:12:48.211Z,101268.75
2022-12-31T19:15:53.573Z,101267.87
2022-12-31T19:18:56.734Z,101269.72
2022-12-31T19:22:04.340Z,101272.09
2022-12-31T19:25:24.013Z,101262.41
2022-12-31T19:28:28.538Z,101262.50
2022-12-31T19:31:31.287Z,101260.94
2022-12-31T19:34:35.239Z,101254.75
2022-12-31T19:37:40.083Z,101258.16
2022-12-31T19:40:44.949Z,101253.97
2022-12-31T19:43:49.637Z,101257.53
2022-12-31T19:46:56.177Z,101270.25
2022-12-31T19:50:02.087Z,101276.38
2022-12-31T19:53:05.678Z,101285.22
2022-12-31T19:56:14.694Z,101276.03
2022-12-31T19:59:19.078Z,101254.94
2022-12-31T20:02:22.356Z,101244.84
2022-12-31T20:05:27.101Z,101237.31
2022-12-31T20:08:31.024Z,101232.16
2022-12-31T20:11:34.971Z,101237.34
2022-12-31T20:14:38.536Z,101243.28
2022-12-31T20:17:42.494Z,101243.31
2022-12-31T20:20:55.867Z,101241.44
2022-12-31T20:24:04.221Z,101235.41
2022-12-31T20:27:16.540Z,101229.16
2022-12-31T20:30:23.744Z,101231.13
2022-12-31T20:33:30.263Z,101239.91
2022-12-31T20:36:32.872Z,101238.22
2022-12-31T20:39:36.982Z,101244.97
2022-12-31T20:42:43.660Z,101240.87
2022-12-31T20:45:50.892Z,101244.22
2022-12-31T20:49:05.101Z,101247.41
2022-12-31T20:52:08.605Z,101259.00
2022-12-31T20:55:14.048Z,101255.78
2022-12-31T20:58:17.932Z,101246.06
2022-12-31T21:01:21.451Z,101249.03
2022-12-31T21:04:26.024Z,101237.09
2022-12-31T21:07:32.769Z,101246.50
2022-12-31T21:10:37.286Z,101230.50
2022-12-31T21:13:42.939Z,101230.75
2022-12-31T21:16:46.648Z,101233.53
2022-12-31T21:19:54.146Z,101232.81
2022-12-31T21:23:00.203Z,101241.31
2022-12-31T21:26:04.213Z,101237.56
2022-12-31T21:29:12.105Z,101253.97
2022-12-31T21:32:17.975Z,101258.44
2022-12-31T21:35:43.352Z,101263.63
2022-12-31T21:38:57.154Z,101263.63
2022-12-31T21:42:01.961Z,101265.97
2022-12-31T21:45:07.723Z,101277.16
2022-12-31T21:48:25.870Z,101278.88
2022-12-31T21:51:31.537Z,101270.25
2022-12-31T21:54:53.566Z,101295.41
2022-12-31T22:01:43.478Z,101282.19
2022-12-31T22:05:04.810Z,101283.72
2022-12-31T22:08:10.641Z,101288.03
2022-12-31T22:11:16.615Z,101289.47
2022-12-31T22:14:22.131Z,101287.94
2022-12-31T22:17:24.624Z,101285.50
2022-12-31T22:20:28.568Z,101284.56
2022-12-31T22:23:34.266Z,101287.13
2022-12-31T22:26:44.533Z,101289.66
2022-12-31T22:29:49.083Z,101285.91
2022-12-31T22:32:52.583Z,101280.06
2022-12-31T22:36:06.238Z,101287.91
2022-12-31T22:39:43.924Z,101279.47
2022-12-31T22:42:39.931Z,101271.91
2022-12-31T22:45:43.529Z,101275.25
2022-12-31T22:48:47.737Z,101265.59
2022-12-31T22:51:55.664Z,101262.28
2022-12-31T22:55:03.556Z,101257.31
2022-12-31T22:58:06.988Z,101266.03
2022-12-31T23:01:16.782Z,101263.63
2022-12-31T23:04:23.485Z,101279.25
2022-12-31T23:07:27.023Z,101263.09
2022-12-31T23:10:48.757Z,101253.78
2022-12-31T23:14:10.738Z,101251.34
2022-12-31T23:17:38.961Z,101252.41
2022-12-31T23:21:01.011Z,101249.09
2022-12-31T23:24:05.517Z,101252.66
2022-12-31T23:27:11.112Z,101247.59
2022-12-31T23:30:14.784Z,101252.88
2022-12-31T23:33:22.445Z,101260.81
2022-12-31T23:36:29.109Z,101256.75
2022-12-31T23:39:34.501Z,101259.50
2022-12-31T23:42:38.487Z,101270.72
2022-12-31T23:45:42.121Z,101275.94
2022-12-31T23:48:45.728Z,101282.91
2022-12-31T23:51:50.048Z,101281.28
2022-12-31T23:54:52.824Z,101268.34
2022-12-31T23:57:56.536Z,101268.41
